Time,TemperatureF,DewpointF,PressureIn,WindDirection,WindDirectionDegrees,WindSpeedMPH,WindSpeedGustMPH,Humidity,HourlyPrecipIn,Conditions,Clouds,dailyrainin,SoftwareType,DateUTC
2013-06-17 00:00:00,61.8,60.2,30.01,ENE,73,0.0,25.2,95,0.00,,,0.00,VWS V14.01,2013-06-17 04:00:00,
2013-06-17 00:01:00,61.8,60.1,30.01,NW,318,0.0,11.7,94,0.00,,,0.00,VWS V14.01,2013-06-17 04:01:00,
2013-06-17 00:02:00,61.8,60.1,30.01,NW,318,0.0,11.7,94,0.00,,,0.00,VWS V14.01,2013-06-17 04:02:00,
2013-06-17 00:03:00,61.9,60.2,30.01,NNW,342,0.0,11.7,94,0.00,,,0.00,VWS V14.01,2013-06-17 04:03:00,
2013-06-17 00:04:00,61.9,60.2,30.01,NNW,342,0.0,11.7,94,0.00,,,0.00,VWS V14.01,2013-06-17 04:04:00,
2013-06-17 00:05:00,61.7,60.2,30.01,NNE,20,3.7,6.9,95,0.00,,,0.00,VWS V14.01,2013-06-17 04:05:00,
2013-06-17 00:06:00,61.8,60.3,30.01,NNE,20,0.0,6.9,95,0.00,,,0.00,VWS V14.01,2013-06-17 04:06:00,
2013-06-17 00:07:00,61.8,60.3,30.01,NNE,20,0.0,6.9,95,0.00,,,0.00,VWS V14.01,2013-06-17 04:07:00,
2013-06-17 00:08:00,61.9,60.4,30.01,NNE,20,0.0,6.9,95,0.00,,,0.00,VWS V14.01,2013-06-17 04:08:00,
2013-06-17 00:09:00,61.8,60.1,30.01,NE,34,0.0,11.7,94,0.00,,,0.00,VWS V14.01,2013-06-17 04:09:00,
2013-06-17 00:10:00,61.7,60.2,30.01,SSE,163,2.2,6.9,95,0.00,,,0.00,VWS V14.01,2013-06-17 04:10:00,
2013-06-17 00:11:00,61.9,60.4,30.01,NW,312,0.0,10.1,95,0.00,,,0.00,VWS V14.01,2013-06-17 04:11:00,
2013-06-17 00:12:00,61.9,60.4,30.01,NW,312,0.0,10.1,95,0.00,,,0.00,VWS V14.01,2013-06-17 04:12:00,
2013-06-17 00:13:00,61.9,60.4,30.01,NW,312,0.0,10.1,95,0.00,,,0.00,VWS V14.01,2013-06-17 04:13:00,
2013-06-17 00:14:00,61.9,60.2,30.01,NE,41,0.0,11.7,94,0.00,,,0.00,VWS V14.01,2013-06-17 04:14:00,
2013-06-17 00:15:00,61.9,60.4,30.01,North,4,3.0,13.2,95,0.00,,,0.00,VWS V14.01,2013-06-17 04:15:00,
2013-06-17 00:16:00,62.0,60.5,30.01,North,359,4.7,13.2,95,0.00,,,0.00,VWS V14.01,2013-06-17 04:16:00,
2013-06-17 00:17:00,61.8,60.3,30.01,NNW,328,4.1,13.2,95,0.00,,,0.00,VWS V14.01,2013-06-17 04:17:00,
2013-06-17 00:18:00,61.8,60.3,30.01,ESE,112,1.3,13.2,95,0.00,,,0.00,VWS V14.01,2013-06-17 04:18:00,
2013-06-17 00:19:00,61.8,60.1,30.01,NE,41,0.0,11.7,94,0.00,,,0.00,VWS V14.01,2013-06-17 04:19:00,
2013-06-17 00:20:00,61.9,60.4,30.01,NNE,18,0.0,13.2,95,0.00,,,0.00,VWS V14.01,2013-06-17 04:20:00,
2013-06-17 00:21:00,61.9,60.4,30.00,NE,46,1.5,13.2,95,0.00,,,0.00,VWS V14.01,2013-06-17 04:21:00,
2013-06-17 00:22:00,61.8,60.3,30.00,North,7,3.7,13.2,95,0.00,,,0.00,VWS V14.01,2013-06-17 04:22:00,
2013-06-17 00:23:00,62.0,60.5,30.01,North,7,0.0,13.2,95,0.00,,,0.00,VWS V14.01,2013-06-17 04:23:00,
2013-06-17 00:24:00,61.8,60.1,30.01,NNE,21,0.0,13.8,94,0.00,,,0.00,VWS V14.01,2013-06-17 04:24:00,
2013-06-17 00:25:00,61.9,60.4,30.01,East,79,0.0,13.2,95,0.00,,,0.00,VWS V14.01,2013-06-17 04:25:00,
2013-06-17 00:26:00,61.8,60.3,30.01,NE,45,5.6,14.9,95,0.00,,,0.00,VWS V14.01,2013-06-17 04:26:00,
2013-06-17 00:27:00,61.9,60.4,30.01,ENE,58,3.2,14.9,95,0.00,,,0.00,VWS V14.01,2013-06-17 04:27:00,
2013-06-17 00:28:00,61.8,60.3,30.00,North,3,0.0,14.9,95,0.00,,,0.00,VWS V14.01,2013-06-17 04:28:00,
2013-06-17 00:29:00,61.8,60.2,30.01,NE,49,3.9,13.8,94,0.00,,,0.00,VWS V14.01,2013-06-17 04:29:00,
2013-06-17 00:30:00,61.8,60.3,30.00,NW,326,14.0,15.3,95,0.00,,,0.00,VWS V14.01,2013-06-17 04:30:00,
2013-06-17 00:31:00,61.8,60.3,30.00,North,349,0.0,15.3,95,0.00,,,0.00,VWS V14.01,2013-06-17 04:31:00,
2013-06-17 00:32:00,61.8,60.3,30.00,North,349,0.0,15.3,95,0.00,,,0.00,VWS V14.01,2013-06-17 04:32:00,
2013-06-17 00:33:00,61.9,60.4,30.00,North,349,0.0,15.3,95,0.00,,,0.00,VWS V14.01,2013-06-17 04:33:00,
2013-06-17 00:34:00,61.8,60.2,30.01,North,359,8.0,13.8,94,0.00,,,0.00,VWS V14.01,2013-06-17 04:34:00,
2013-06-17 00:35:00,61.9,60.4,30.00,North,349,0.0,15.3,95,0.00,,,0.00,VWS V14.01,2013-06-17 04:35:00,
2013-06-17 00:36:00,61.8,60.3,30.00,North,349,0.0,15.3,95,0.00,,,0.00,VWS V14.01,2013-06-17 04:36:00,
2013-06-17 00:37:00,61.8,60.3,30.00,NNE,27,0.0,15.3,95,0.00,,,0.00,VWS V14.01,2013-06-17 04:37:00,
2013-06-17 00:38:00,61.8,60.3,30.00,NE,46,5.6,15.3,95,0.00,,,0.00,VWS V14.01,2013-06-17 04:38:00,
2013-06-17 00:39:00,61.8,60.2,30.01,North,353,0.0,13.8,94,0.00,,,0.00,VWS V14.01,2013-06-17 04:39:00,
2013-06-17 00:40:00,61.8,60.3,30.00,NNW,340,3.5,15.3,95,0.00,,,0.00,VWS V14.01,2013-06-17 04:40:00,
2013-06-17 00:41:00,61.9,60.4,30.00,NNW,346,2.8,15.3,95,0.00,,,0.00,VWS V14.01,2013-06-17 04:41:00,
2013-06-17 00:42:00,61.8,60.3,30.00,NNW,329,0.0,15.3,95,0.00,,,0.00,VWS V14.01,2013-06-17 04:42:00,
2013-06-17 00:43:00,61.9,60.4,30.00,NNW,329,0.0,15.3,95,0.00,,,0.00,VWS V14.01,2013-06-17 04:43:00,
2013-06-17 00:44:00,61.7,60.1,30.01,North,353,0.0,13.8,94,0.00,,,0.00,VWS V14.01,2013-06-17 04:44:00,
2013-06-17 00:45:00,61.9,60.5,30.00,NNW,329,0.0,15.3,95,0.00,,,0.00,VWS V14.01,2013-06-17 04:45:00,
2013-06-17 00:46:00,61.9,60.5,30.00,NNW,329,0.0,15.3,95,0.00,,,0.00,VWS V14.01,2013-06-17 04:46:00,
2013-06-17 00:47:00,61.8,60.4,30.00,NNW,329,0.0,15.3,95,0.00,,,0.00,VWS V14.01,2013-06-17 04:47:00,
2013-06-17 00:48:00,61.8,60.4,30.00,NNW,329,0.0,15.3,95,0.00,,,0.00,VWS V14.01,2013-06-17 04:48:00,
2013-06-17 00:49:00,61.8,60.2,30.01,East,82,0.0,25.2,95,0.00,,,0.00,VWS V14.01,2013-06-17 04:49:00,
2013-06-17 00:50:00,61.8,60.4,30.00,NNW,329,0.0,15.3,95,0.00,,,0.00,VWS V14.01,2013-06-17 04:50:00,
2013-06-17 00:51:00,61.9,60.5,30.00,NNW,329,0.0,15.3,95,0.00,,,0.00,VWS V14.01,2013-06-17 04:51:00,
2013-06-17 00:52:00,61.9,60.5,30.00,NNW,329,0.0,15.3,95,0.00,,,0.00,VWS V14.01,2013-06-17 04:52:00,
2013-06-17 00:53:00,61.9,60.5,30.00,NNW,329,0.0,15.3,95,0.00,,,0.00,VWS V14.01,2013-06-17 04:53:00,
2013-06-17 00:54:00,61.9,60.5,30.00,NNW,329,0.0,15.3,95,0.00,,,0.00,VWS V14.01,2013-06-17 04:54:00,
2013-06-17 00:56:00,61.9,60.5,30.00,NNW,329,0.0,15.3,95,0.00,,,0.00,VWS V14.01,2013-06-17 04:56:00,
2013-06-17 00:57:00,61.9,60.5,30.00,North,8,3.9,15.3,95,0.00,,,0.00,VWS V14.01,2013-06-17 04:57:00,
2013-06-17 01:31:00,61.8,60.3,30.00,NNE,21,0.0,15.3,95,0.00,,,0.00,VWS V14.01,2013-06-17 05:31:00,
2013-06-17 01:37:00,61.9,60.4,30.00,NNW,329,0.0,15.3,95,0.00,,,0.00,VWS V14.01,2013-06-17 05:37:00,
2013-06-17 01:42:00,61.7,60.3,30.00,NNW,329,0.0,15.3,95,0.00,,,0.00,VWS V14.01,2013-06-17 05:42:00,
2013-06-17 01:47:00,61.9,60.5,30.00,NNW,329,0.0,15.3,95,0.00,,,0.00,VWS V14.01,2013-06-17 05:47:00,
2013-06-17 01:52:00,61.8,60.4,30.00,ENE,68,0.0,15.3,95,0.00,,,0.00,VWS V14.01,2013-06-17 05:52:00,
2013-06-17 01:57:00,61.8,60.4,30.00,NE,38,0.0,12.3,95,0.00,,,0.00,VWS V14.01,2013-06-17 05:57:00,
2013-06-17 02:03:00,61.8,60.4,30.00,ESE,114,0.0,18.6,95,0.00,,,0.00,VWS V14.01,2013-06-17 06:03:00,
2013-06-17 02:08:00,61.9,60.5,30.00,NE,49,0.0,23.9,95,0.00,,,0.00,VWS V14.01,2013-06-17 06:08:00,
2013-06-17 02:13:00,61.8,60.4,30.01,ENE,68,7.3,23.9,95,0.00,,,0.00,VWS V14.01,2013-06-17 06:13:00,
2013-06-17 02:18:00,61.9,60.5,30.01,NNW,330,0.0,23.9,95,0.00,,,0.00,VWS V14.01,2013-06-17 06:18:00,
2013-06-17 02:23:00,61.9,60.5,30.01,NNW,330,0.0,23.9,95,0.00,,,0.00,VWS V14.01,2013-06-17 06:23:00,
2013-06-17 02:28:00,62.0,60.6,30.01,SSE,149,0.0,23.9,95,0.00,,,0.00,VWS V14.01,2013-06-17 06:28:00,
2013-06-17 02:33:00,61.9,60.5,30.01,SE,136,0.0,23.9,95,0.00,,,0.00,VWS V14.01,2013-06-17 06:33:00,
2013-06-17 02:38:00,62.0,60.6,30.01,NNE,21,0.0,23.9,95,0.00,,,0.00,VWS V14.01,2013-06-17 06:38:00,
2013-06-17 02:43:00,61.9,60.5,30.01,NNW,336,0.0,23.9,95,0.00,,,0.00,VWS V14.01,2013-06-17 06:43:00,
2013-06-17 02:48:00,62.0,60.6,30.01,NNW,336,0.0,23.9,95,0.00,,,0.00,VWS V14.01,2013-06-17 06:48:00,
2013-06-17 02:53:00,61.8,60.5,30.00,NNE,30,0.0,23.9,95,0.00,,,0.00,VWS V14.01,2013-06-17 06:53:00,
2013-06-17 02:58:00,61.9,60.5,30.00,NNE,30,0.0,0.0,95,0.00,,,0.00,VWS V14.01,2013-06-17 06:58:00,
2013-06-17 03:03:00,61.8,60.5,30.00,NNW,328,0.0,7.5,95,0.00,,,0.00,VWS V14.01,2013-06-17 07:03:00,
2013-06-17 03:08:00,62.0,60.7,30.00,NNE,22,0.0,16.4,95,0.00,,,0.00,VWS V14.01,2013-06-17 07:08:00,
2013-06-17 03:13:00,61.9,60.6,30.00,NW,318,0.0,16.4,96,0.00,,,0.00,VWS V14.01,2013-06-17 07:13:00,
2013-06-17 03:18:00,61.9,60.7,30.00,East,82,4.3,16.4,96,0.00,,,0.00,VWS V14.01,2013-06-17 07:18:00,
2013-06-17 03:23:00,61.9,60.7,30.00,ENE,73,2.2,16.4,96,0.00,,,0.00,VWS V14.01,2013-06-17 07:23:00,
2013-06-17 03:28:00,61.9,60.7,30.00,NE,53,0.0,16.4,96,0.00,,,0.00,VWS V14.01,2013-06-17 07:28:00,
2013-06-17 03:33:00,61.9,60.8,30.00,NE,34,0.0,16.4,96,0.00,,,0.00,VWS V14.01,2013-06-17 07:33:00,
2013-06-17 03:38:00,62.0,60.9,30.00,North,0,0.0,16.4,96,0.00,,,0.00,VWS V14.01,2013-06-17 07:38:00,
2013-06-17 03:43:00,62.0,60.9,30.00,ENE,70,3.0,17.9,96,0.00,,,0.00,VWS V14.01,2013-06-17 07:43:00,
2013-06-17 03:48:00,61.9,60.8,30.00,North,3,0.0,17.9,96,0.00,,,0.00,VWS V14.01,2013-06-17 07:48:00,
2013-06-17 03:53:00,62.0,60.9,30.00,NNE,24,0.0,2.8,96,0.00,,,0.00,VWS V14.01,2013-06-17 07:53:00,
2013-06-17 03:58:00,61.9,60.8,30.00,North,359,3.2,3.2,96,0.00,,,0.00,VWS V14.01,2013-06-17 07:58:00,
2013-06-17 04:03:00,61.9,60.9,30.00,NE,37,0.0,9.7,96,0.00,,,0.00,VWS V14.01,2013-06-17 08:03:00,
2013-06-17 04:09:00,61.9,60.9,30.00,NE,37,0.0,9.7,96,0.00,,,0.00,VWS V14.01,2013-06-17 08:09:00,
2013-06-17 04:14:00,61.9,60.9,30.00,NE,37,0.0,9.7,96,0.00,,,0.00,VWS V14.01,2013-06-17 08:14:00,
2013-06-17 04:19:00,61.8,60.8,30.00,NE,37,0.0,9.7,96,0.00,,,0.00,VWS V14.01,2013-06-17 08:19:00,
2013-06-17 04:24:00,61.8,60.9,30.00,NE,39,0.0,20.1,97,0.00,,,0.00,VWS V14.01,2013-06-17 08:24:00,
2013-06-17 04:29:00,61.8,60.9,30.00,NE,45,0.0,20.1,97,0.00,,,0.00,VWS V14.01,2013-06-17 08:29:00,
2013-06-17 04:34:00,61.8,60.9,30.00,NNW,343,0.0,20.1,97,0.00,,,0.00,VWS V14.01,2013-06-17 08:34:00,
2013-06-17 04:39:00,61.8,61.0,30.00,NNW,342,0.0,20.1,97,0.00,,,0.00,VWS V14.01,2013-06-17 08:39:00,
2013-06-17 04:44:00,61.8,61.0,30.00,NNW,342,0.0,20.1,97,0.00,,,0.00,VWS V14.01,2013-06-17 08:44:00,
2013-06-17 04:49:00,61.8,61.0,30.00,SW,215,0.0,20.1,97,0.00,,,0.00,VWS V14.01,2013-06-17 08:49:00,
2013-06-17 04:54:00,61.8,61.1,30.00,NE,38,0.0,0.0,98,0.00,,,0.00,VWS V14.01,2013-06-17 08:54:00,
2013-06-17 04:59:00,61.8,61.1,30.01,North,359,5.2,7.8,98,0.00,,,0.00,VWS V14.01,2013-06-17 08:59:00,
2013-06-17 05:04:00,61.8,61.2,30.01,NNE,21,0.0,7.8,98,0.00,,,0.00,VWS V14.01,2013-06-17 09:04:00,
2013-06-17 05:09:00,62.0,61.4,30.01,North,353,0.0,13.6,98,0.00,,,0.00,VWS V14.01,2013-06-17 09:09:00,
2013-06-17 05:14:00,61.8,61.2,30.00,ENE,65,0.0,13.6,98,0.00,,,0.00,VWS V14.01,2013-06-17 09:14:00,
2013-06-17 05:19:00,61.9,61.3,30.00,SSW,193,0.0,13.6,98,0.00,,,0.00,VWS V14.01,2013-06-17 09:19:00,
2013-06-17 05:24:00,61.8,61.2,30.00,SSW,193,0.0,13.6,98,0.00,,,0.00,VWS V14.01,2013-06-17 09:24:00,
2013-06-17 05:29:00,61.9,61.3,30.00,SSW,193,0.0,13.6,98,0.00,,,0.00,VWS V14.01,2013-06-17 09:29:00,
2013-06-17 05:34:00,61.9,61.3,30.01,SSW,193,0.0,13.6,98,0.00,,,0.00,VWS V14.01,2013-06-17 09:34:00,
2013-06-17 05:39:00,61.9,61.3,30.01,ENE,62,0.0,13.6,98,0.00,,,0.00,VWS V14.01,2013-06-17 09:39:00,
2013-06-17 05:44:00,61.9,61.3,30.01,ESE,111,0.0,13.6,98,0.00,,,0.00,VWS V14.01,2013-06-17 09:44:00,
2013-06-17 05:49:00,61.9,61.3,30.01,ESE,111,0.0,13.6,98,0.00,,,0.00,VWS V14.01,2013-06-17 09:49:00,
2013-06-17 05:54:00,61.9,61.3,30.01,ESE,111,0.0,0.0,98,0.00,,,0.00,VWS V14.01,2013-06-17 09:54:00,
2013-06-17 05:59:00,61.8,61.2,30.01,North,4,0.0,9.9,98,0.00,,,0.00,VWS V14.01,2013-06-17 09:59:00,
2013-06-17 06:04:00,61.9,61.3,30.01,North,4,0.0,9.9,98,0.00,,,0.00,VWS V14.01,2013-06-17 10:04:00,
2013-06-17 06:10:00,61.8,61.2,30.01,North,4,0.0,9.9,98,0.00,,,0.00,VWS V14.01,2013-06-17 10:10:00,
2013-06-17 06:15:00,62.0,61.4,30.01,North,4,0.0,9.9,98,0.00,,,0.00,VWS V14.01,2013-06-17 10:15:00,
2013-06-17 06:20:00,61.8,61.2,30.01,NE,37,0.0,9.9,98,0.00,,,0.00,VWS V14.01,2013-06-17 10:20:00,
2013-06-17 06:25:00,61.9,61.3,30.01,ENE,70,0.0,11.0,98,0.00,,,0.00,VWS V14.01,2013-06-17 10:25:00,
2013-06-17 06:30:00,61.8,61.2,30.01,East,80,0.0,18.5,98,0.01,,,0.01,VWS V14.01,2013-06-17 10:30:00,
2013-06-17 06:35:00,61.8,61.2,30.02,ESE,111,0.0,18.5,98,0.01,,,0.01,VWS V14.01,2013-06-17 10:35:00,
2013-06-17 06:40:00,61.8,61.2,30.02,ESE,111,0.0,18.5,98,0.01,,,0.01,VWS V14.01,2013-06-17 10:40:00,
2013-06-17 06:45:00,61.8,61.2,30.02,ESE,111,0.0,18.5,98,0.01,,,0.01,VWS V14.01,2013-06-17 10:45:00,
2013-06-17 06:50:00,61.8,61.2,30.01,South,173,0.0,18.5,98,0.01,,,0.01,VWS V14.01,2013-06-17 10:50:00,
2013-06-17 06:55:00,61.7,61.1,30.01,SE,125,2.8,2.8,98,0.01,,,0.01,VWS V14.01,2013-06-17 10:55:00,
2013-06-17 07:00:00,61.7,61.1,30.02,NE,35,0.0,2.8,98,0.01,,,0.01,VWS V14.01,2013-06-17 11:00:00,
2013-06-17 07:05:00,61.8,61.2,30.02,NE,35,0.0,2.8,98,0.01,,,0.01,VWS V14.01,2013-06-17 11:05:00,
2013-06-17 07:10:00,61.8,61.2,30.02,NE,35,0.0,2.8,98,0.01,,,0.01,VWS V14.01,2013-06-17 11:10:00,
2013-06-17 07:15:00,61.8,61.2,30.02,NE,35,0.0,2.8,98,0.01,,,0.01,VWS V14.01,2013-06-17 11:15:00,
2013-06-17 07:20:00,61.9,61.3,30.02,NW,308,0.0,11.2,98,0.01,,,0.01,VWS V14.01,2013-06-17 11:20:00,
2013-06-17 07:25:00,61.8,61.2,30.02,ESE,110,0.0,17.1,98,0.01,,,0.01,VWS V14.01,2013-06-17 11:25:00,
2013-06-17 07:30:00,61.8,61.2,30.02,ESE,110,0.0,17.1,98,0.01,,,0.01,VWS V14.01,2013-06-17 11:30:00,
2013-06-17 07:35:00,61.9,61.3,30.02,ENE,72,0.0,17.3,98,0.01,,,0.01,VWS V14.01,2013-06-17 11:35:00,
2013-06-17 07:40:00,61.8,61.2,30.03,ESE,104,1.7,17.3,98,0.01,,,0.01,VWS V14.01,2013-06-17 11:40:00,
2013-06-17 07:45:00,61.7,61.1,30.03,North,8,0.0,17.3,98,0.01,,,0.01,VWS V14.01,2013-06-17 11:45:00,
2013-06-17 07:50:00,61.8,61.2,30.03,East,93,0.0,17.3,98,0.01,,,0.01,VWS V14.01,2013-06-17 11:50:00,
2013-06-17 07:55:00,61.8,61.2,30.03,ESE,122,8.6,16.2,98,0.00,,,0.01,VWS V14.01,2013-06-17 11:55:00,
2013-06-17 08:01:00,61.9,61.3,30.03,North,7,0.0,16.2,98,0.00,,,0.01,VWS V14.01,2013-06-17 12:01:00,
2013-06-17 08:06:00,61.8,61.2,30.03,North,7,0.0,16.2,98,0.00,,,0.01,VWS V14.01,2013-06-17 12:06:00,
2013-06-17 08:11:00,61.9,61.3,30.03,East,93,0.0,16.2,98,0.00,,,0.01,VWS V14.01,2013-06-17 12:11:00,
2013-06-17 08:16:00,61.8,61.2,30.03,ENE,65,0.0,16.2,98,0.00,,,0.01,VWS V14.01,2013-06-17 12:16:00,
2013-06-17 08:21:00,61.8,61.2,30.04,ENE,65,0.0,16.2,98,0.00,,,0.01,VWS V14.01,2013-06-17 12:21:00,
2013-06-17 08:26:00,61.8,61.2,30.04,East,90,0.0,16.2,98,0.00,,,0.01,VWS V14.01,2013-06-17 12:26:00,
2013-06-17 08:31:00,62.0,61.4,30.04,East,90,0.0,16.2,98,0.00,,,0.01,VWS V14.01,2013-06-17 12:31:00,
2013-06-17 08:36:00,62.0,61.4,30.04,East,90,0.0,16.2,98,0.00,,,0.01,VWS V14.01,2013-06-17 12:36:00,
2013-06-17 08:41:00,62.0,61.4,30.04,East,90,0.0,16.2,98,0.00,,,0.01,VWS V14.01,2013-06-17 12:41:00,
2013-06-17 08:46:00,62.0,61.4,30.04,East,90,0.0,16.2,98,0.00,,,0.01,VWS V14.01,2013-06-17 12:46:00,
2013-06-17 08:51:00,61.9,61.3,30.04,East,90,0.0,16.2,98,0.00,,,0.01,VWS V14.01,2013-06-17 12:51:00,
2013-06-17 08:56:00,62.0,61.4,30.04,East,90,0.0,0.0,98,0.00,,,0.01,VWS V14.01,2013-06-17 12:56:00,
2013-06-17 09:01:00,62.0,61.4,30.04,ENE,73,0.0,13.4,98,0.00,,,0.01,VWS V14.01,2013-06-17 13:01:00,
2013-06-17 09:06:00,62.0,61.4,30.04,ENE,73,0.0,13.4,98,0.00,,,0.01,VWS V14.01,2013-06-17 13:06:00,
2013-06-17 09:11:00,62.0,61.4,30.04,South,191,3.4,13.4,98,0.00,,,0.01,VWS V14.01,2013-06-17 13:11:00,
2013-06-17 09:16:00,62.1,61.5,30.04,NNE,14,0.0,13.4,98,0.00,,,0.01,VWS V14.01,2013-06-17 13:16:00,
2013-06-17 09:21:00,62.1,61.5,30.04,ENE,76,2.2,13.4,98,0.00,,,0.01,VWS V14.01,2013-06-17 13:21:00,
2013-06-17 09:26:00,62.0,61.4,30.03,NE,45,0.0,17.3,98,0.00,,,0.01,VWS V14.01,2013-06-17 13:26:00,
2013-06-17 09:31:00,62.1,61.5,30.03,NW,326,0.0,17.3,98,0.00,,,0.01,VWS V14.01,2013-06-17 13:31:00,
2013-06-17 09:36:00,62.3,61.7,30.03,NW,326,0.0,17.3,98,0.00,,,0.01,VWS V14.01,2013-06-17 13:36:00,
2013-06-17 09:41:00,62.3,61.7,30.03,NW,326,0.0,17.3,98,0.00,,,0.01,VWS V14.01,2013-06-17 13:41:00,
2013-06-17 09:47:00,62.5,61.9,30.03,NW,326,0.0,17.3,98,0.00,,,0.01,VWS V14.01,2013-06-17 13:47:00,
2013-06-17 09:52:00,62.4,61.8,30.03,NW,326,0.0,17.3,98,0.00,,,0.01,VWS V14.01,2013-06-17 13:52:00,
2013-06-17 09:57:00,62.5,61.9,30.03,NE,41,3.5,13.2,98,0.00,,,0.01,VWS V14.01,2013-06-17 13:57:00,
2013-06-17 10:02:00,62.7,62.1,30.04,NE,49,0.0,13.2,98,0.00,,,0.01,VWS V14.01,2013-06-17 14:02:00,
2013-06-17 10:07:00,62.8,62.2,30.04,NE,49,0.0,13.2,98,0.00,,,0.01,VWS V14.01,2013-06-17 14:07:00,
2013-06-17 10:12:00,62.8,62.2,30.04,NE,49,0.0,13.2,98,0.00,,,0.01,VWS V14.01,2013-06-17 14:12:00,
2013-06-17 10:17:00,62.8,62.2,30.04,NE,45,0.0,13.2,98,0.00,,,0.01,VWS V14.01,2013-06-17 14:17:00,
2013-06-17 10:22:00,63.0,62.4,30.03,NNW,330,0.0,13.2,98,0.00,,,0.01,VWS V14.01,2013-06-17 14:22:00,
2013-06-17 10:27:00,63.2,62.6,30.03,NNW,330,0.0,13.2,98,0.00,,,0.01,VWS V14.01,2013-06-17 14:27:00,
2013-06-17 10:32:00,63.1,62.3,30.03,NNW,330,0.0,13.2,97,0.00,,,0.01,VWS V14.01,2013-06-17 14:32:00,
2013-06-17 10:37:00,63.4,62.6,30.03,NNW,330,0.0,13.2,97,0.00,,,0.01,VWS V14.01,2013-06-17 14:37:00,
2013-06-17 10:42:00,63.7,62.8,30.03,NNW,330,0.0,13.2,97,0.00,,,0.01,VWS V14.01,2013-06-17 14:42:00,
2013-06-17 10:47:00,63.8,62.7,30.04,NNW,330,0.0,13.2,96,0.00,,,0.01,VWS V14.01,2013-06-17 14:47:00,
2013-06-17 10:52:00,64.0,62.4,30.04,ESE,107,8.6,13.6,94,0.00,,,0.01,VWS V14.01,2013-06-17 14:52:00,
2013-06-17 10:57:00,63.9,62.3,30.05,NNW,345,0.7,9.7,94,0.00,,,0.01,VWS V14.01,2013-06-17 14:57:00,
2013-06-17 11:02:00,64.1,62.5,30.04,East,101,5.8,9.7,95,0.00,,,0.01,VWS V14.01,2013-06-17 15:02:00,
2013-06-17 11:07:00,64.5,62.7,30.05,NW,319,0.0,9.7,94,0.00,,,0.01,VWS V14.01,2013-06-17 15:07:00,
2013-06-17 11:12:00,64.9,62.8,30.04,WNW,300,4.3,9.7,93,0.00,,,0.01,VWS V14.01,2013-06-17 15:12:00,
2013-06-17 11:17:00,65.3,62.8,30.04,NNW,343,0.0,10.8,92,0.00,,,0.01,VWS V14.01,2013-06-17 15:17:00,
2013-06-17 11:22:00,65.7,63.1,30.05,NNW,329,0.0,10.8,91,0.00,,,0.01,VWS V14.01,2013-06-17 15:22:00,
2013-06-17 11:27:00,66.0,63.3,30.05,NNW,329,0.0,10.8,91,0.00,,,0.01,VWS V14.01,2013-06-17 15:27:00,
2013-06-17 11:32:00,66.1,61.8,30.05,NNW,329,0.0,10.8,86,0.00,,,0.01,VWS V14.01,2013-06-17 15:32:00,
2013-06-17 11:37:00,66.1,61.2,30.05,NNW,339,0.0,12.1,84,0.00,,,0.01,VWS V14.01,2013-06-17 15:37:00,
2013-06-17 11:43:00,66.3,61.5,30.05,SSE,156,0.0,12.1,84,0.00,,,0.01,VWS V14.01,2013-06-17 15:43:00,
2013-06-17 11:48:00,66.3,61.2,30.05,NE,48,0.0,12.1,84,0.00,,,0.01,VWS V14.01,2013-06-17 15:48:00,
2013-06-17 11:53:00,66.1,61.2,30.05,ENE,72,15.1,15.1,84,0.00,,,0.01,VWS V14.01,2013-06-17 15:53:00,
2013-06-17 11:58:00,66.3,60.9,30.05,North,4,0.0,8.9,83,0.00,,,0.01,VWS V14.01,2013-06-17 15:58:00,
2013-06-17 12:03:00,66.6,61.4,30.05,SSE,150,0.0,16.0,83,0.00,,,0.01,VWS V14.01,2013-06-17 16:03:00,
2013-06-17 12:08:00,66.7,60.4,30.05,NE,53,0.0,16.0,80,0.00,,,0.01,VWS V14.01,2013-06-17 16:08:00,
2013-06-17 12:13:00,66.7,60.4,30.05,NW,318,0.9,16.0,80,0.00,,,0.01,VWS V14.01,2013-06-17 16:13:00,
2013-06-17 12:18:00,66.9,60.8,30.05,East,82,8.9,16.0,81,0.00,,,0.01,VWS V14.01,2013-06-17 16:18:00,
2013-06-17 12:23:00,67.2,60.1,30.04,NNE,21,5.4,16.0,78,0.00,,,0.01,VWS V14.01,2013-06-17 16:23:00,
2013-06-17 12:28:00,67.4,59.7,30.05,NNW,340,0.0,16.0,76,0.00,,,0.01,VWS V14.01,2013-06-17 16:28:00,
2013-06-17 12:33:00,67.5,60.3,30.05,NNW,347,0.0,16.0,78,0.00,,,0.01,VWS V14.01,2013-06-17 16:33:00,
2013-06-17 12:38:00,67.7,60.5,30.05,NNW,347,0.0,16.0,78,0.00,,,0.01,VWS V14.01,2013-06-17 16:38:00,
2013-06-17 12:43:00,67.9,59.0,30.05,ENE,73,2.4,16.0,73,0.00,,,0.01,VWS V14.01,2013-06-17 16:43:00,
2013-06-17 12:48:00,68.2,59.4,30.05,North,349,0.0,16.0,73,0.00,,,0.01,VWS V14.01,2013-06-17 16:48:00,
2013-06-17 12:53:00,68.1,59.8,30.05,SE,138,4.5,8.2,75,0.00,,,0.01,VWS V14.01,2013-06-17 16:53:00,
2013-06-17 12:58:00,68.4,59.6,30.05,NE,55,4.3,17.5,73,0.00,,,0.01,VWS V14.01,2013-06-17 16:58:00,
2013-06-17 13:03:00,68.4,59.1,30.05,NNW,340,4.3,17.5,72,0.00,,,0.01,VWS V14.01,2013-06-17 17:03:00,
2013-06-17 13:08:00,68.4,59.9,30.05,NW,314,0.0,17.5,74,0.00,,,0.01,VWS V14.01,2013-06-17 17:08:00,
2013-06-17 13:13:00,68.6,60.2,30.04,NW,314,0.0,17.5,75,0.00,,,0.01,VWS V14.01,2013-06-17 17:13:00,
2013-06-17 13:18:00,68.5,58.9,30.04,NNE,14,0.0,17.5,72,0.00,,,0.01,VWS V14.01,2013-06-17 17:18:00,
2013-06-17 13:23:00,68.8,59.5,30.04,NNW,333,8.8,17.5,72,0.00,,,0.01,VWS V14.01,2013-06-17 17:23:00,
2013-06-17 13:28:00,69.0,59.7,30.04,North,353,2.8,17.5,72,0.00,,,0.01,VWS V14.01,2013-06-17 17:28:00,
2013-06-17 13:34:00,69.2,60.2,30.04,NE,38,2.1,17.5,73,0.00,,,0.01,VWS V14.01,2013-06-17 17:34:00,
2013-06-17 13:39:00,69.6,59.7,30.04,SE,132,3.9,17.5,71,0.00,,,0.01,VWS V14.01,2013-06-17 17:39:00,
2013-06-17 13:44:00,69.6,59.5,30.04,NNW,345,0.9,17.5,70,0.00,,,0.01,VWS V14.01,2013-06-17 17:44:00,
2013-06-17 13:49:00,69.6,59.7,30.04,North,8,6.2,17.5,71,0.00,,,0.01,VWS V14.01,2013-06-17 17:49:00,
2013-06-17 13:54:00,69.6,59.2,30.04,NE,34,6.9,15.7,69,0.00,,,0.01,VWS V14.01,2013-06-17 17:54:00,
2013-06-17 13:59:00,69.6,59.6,30.04,NW,323,4.1,15.7,70,0.00,,,0.01,VWS V14.01,2013-06-17 17:59:00,
2013-06-17 14:04:00,69.8,60.5,30.04,NE,42,8.9,15.7,72,0.00,,,0.01,VWS V14.01,2013-06-17 18:04:00,
2013-06-17 14:09:00,70.1,59.5,30.04,North,349,0.0,15.7,69,0.00,,,0.01,VWS V14.01,2013-06-17 18:09:00,
2013-06-17 14:14:00,70.0,59.4,30.04,NNW,347,5.0,15.7,69,0.00,,,0.01,VWS V14.01,2013-06-17 18:14:00,
2013-06-17 14:19:00,69.8,59.6,30.04,North,3,0.0,15.7,70,0.00,,,0.01,VWS V14.01,2013-06-17 18:19:00,
2013-06-17 14:24:00,69.9,59.7,30.04,NNW,340,0.9,15.7,70,0.00,,,0.01,VWS V14.01,2013-06-17 18:24:00,
2013-06-17 14:29:00,69.8,59.8,30.04,NW,314,1.9,15.7,70,0.00,,,0.01,VWS V14.01,2013-06-17 18:29:00,
2013-06-17 14:34:00,69.7,59.2,30.04,NE,53,0.0,15.7,69,0.00,,,0.01,VWS V14.01,2013-06-17 18:34:00,
2013-06-17 14:39:00,69.5,59.8,30.04,NNW,339,7.5,15.7,71,0.00,,,0.01,VWS V14.01,2013-06-17 18:39:00,
2013-06-17 14:44:00,69.6,60.2,30.04,WNW,297,2.6,15.7,72,0.00,,,0.01,VWS V14.01,2013-06-17 18:44:00,
2013-06-17 14:49:00,69.7,59.7,30.04,West,277,0.0,15.7,71,0.00,,,0.01,VWS V14.01,2013-06-17 18:49:00,
2013-06-17 14:54:00,69.7,59.4,30.03,North,349,3.7,6.5,70,0.00,,,0.01,VWS V14.01,2013-06-17 18:54:00,
2013-06-17 14:59:00,69.8,59.8,30.03,ENE,69,4.5,9.1,71,0.00,,,0.01,VWS V14.01,2013-06-17 18:59:00,
2013-06-17 15:05:00,70.0,59.9,30.03,NW,305,1.3,19.9,70,0.00,,,0.01,VWS V14.01,2013-06-17 19:05:00,
2013-06-17 15:10:00,70.0,59.5,30.03,ENE,66,6.7,19.9,69,0.00,,,0.01,VWS V14.01,2013-06-17 19:10:00,
2013-06-17 15:15:00,70.0,59.5,30.02,North,0,1.1,19.9,69,0.00,,,0.01,VWS V14.01,2013-06-17 19:15:00,
2013-06-17 15:20:00,70.1,60.0,30.02,NW,323,1.7,19.9,70,0.00,,,0.01,VWS V14.01,2013-06-17 19:20:00,
2013-06-17 15:25:00,70.0,59.9,30.02,South,187,1.9,19.9,70,0.00,,,0.01,VWS V14.01,2013-06-17 19:25:00,
2013-06-17 15:30:00,70.1,60.0,30.02,NW,323,0.0,19.9,70,0.00,,,0.01,VWS V14.01,2013-06-17 19:30:00,
2013-06-17 15:35:00,70.0,59.7,30.02,WNW,294,0.0,19.9,70,0.00,,,0.01,VWS V14.01,2013-06-17 19:35:00,
2013-06-17 15:40:00,69.9,59.7,30.02,North,4,2.2,19.9,70,0.00,,,0.01,VWS V14.01,2013-06-17 19:40:00,
2013-06-17 15:45:00,70.1,59.6,30.02,NNE,13,0.9,19.9,69,0.00,,,0.01,VWS V14.01,2013-06-17 19:45:00,
2013-06-17 15:50:00,70.3,60.2,30.02,SSW,201,4.8,19.9,70,0.00,,,0.01,VWS V14.01,2013-06-17 19:50:00,
2013-06-17 15:55:00,70.5,58.5,30.02,NW,305,0.9,8.4,66,0.00,,,0.01,VWS V14.01,2013-06-17 19:55:00,
2013-06-17 16:00:00,70.6,58.6,30.02,South,180,4.8,10.3,66,0.00,,,0.01,VWS V14.01,2013-06-17 20:00:00,
2013-06-17 16:05:00,70.5,57.9,30.02,East,87,0.0,15.7,64,0.00,,,0.01,VWS V14.01,2013-06-17 20:05:00,
2013-06-17 16:10:00,70.6,58.7,30.01,ENE,72,7.1,15.7,66,0.00,,,0.01,VWS V14.01,2013-06-17 20:10:00,
2013-06-17 16:15:00,70.7,58.4,30.01,South,191,8.2,15.7,65,0.00,,,0.01,VWS V14.01,2013-06-17 20:15:00,
2013-06-17 16:20:00,70.7,58.2,30.01,SSE,162,2.1,15.7,64,0.00,,,0.01,VWS V14.01,2013-06-17 20:20:00,
2013-06-17 16:25:00,70.8,58.5,30.01,SE,132,11.6,16.6,65,0.00,,,0.01,VWS V14.01,2013-06-17 20:25:00,
2013-06-17 16:30:00,70.6,58.3,30.01,NE,49,0.0,16.6,65,0.00,,,0.01,VWS V14.01,2013-06-17 20:30:00,
2013-06-17 16:35:00,70.6,58.9,30.01,NNW,343,6.2,16.6,66,0.00,,,0.01,VWS V14.01,2013-06-17 20:35:00,
2013-06-17 16:40:00,70.5,57.9,30.01,NNE,30,3.7,16.6,64,0.00,,,0.01,VWS V14.01,2013-06-17 20:40:00,
2013-06-17 16:46:00,70.7,58.4,30.01,East,83,3.4,16.6,65,0.00,,,0.01,VWS V14.01,2013-06-17 20:46:00,
2013-06-17 16:51:00,70.9,58.5,30.01,NE,46,6.7,17.9,65,0.00,,,0.01,VWS V14.01,2013-06-17 20:51:00,
2013-06-17 16:56:00,70.8,58.4,30.01,NNW,330,0.0,6.5,65,0.00,,,0.01,VWS V14.01,2013-06-17 20:56:00,
2013-06-17 17:01:00,70.8,58.9,30.01,East,90,0.0,6.5,66,0.00,,,0.01,VWS V14.01,2013-06-17 21:01:00,
2013-06-17 17:06:00,71.1,58.7,30.00,NNE,28,4.1,10.8,65,0.00,,,0.01,VWS V14.01,2013-06-17 21:06:00,
2013-06-17 17:11:00,71.3,58.4,30.00,NNE,18,0.7,11.7,64,0.00,,,0.01,VWS V14.01,2013-06-17 21:11:00,
2013-06-17 17:16:00,71.3,57.8,30.00,NE,46,4.8,14.5,62,0.00,,,0.01,VWS V14.01,2013-06-17 21:16:00,
2013-06-17 17:21:00,71.2,57.9,30.00,NE,38,0.0,14.5,63,0.00,,,0.01,VWS V14.01,2013-06-17 21:21:00,
2013-06-17 17:26:00,71.2,57.6,30.00,NE,46,0.0,14.5,62,0.00,,,0.01,VWS V14.01,2013-06-17 21:26:00,
2013-06-17 17:31:00,71.3,57.2,30.00,NE,34,9.9,14.5,61,0.00,,,0.01,VWS V14.01,2013-06-17 21:31:00,
2013-06-17 17:36:00,71.4,57.9,30.00,East,82,7.3,14.5,62,0.00,,,0.01,VWS V14.01,2013-06-17 21:36:00,
2013-06-17 17:41:00,71.1,57.3,30.00,ESE,104,2.6,14.5,62,0.00,,,0.01,VWS V14.01,2013-06-17 21:41:00,
2013-06-17 17:46:00,70.9,58.1,30.00,ENE,69,0.0,14.5,64,0.00,,,0.01,VWS V14.01,2013-06-17 21:46:00,
2013-06-17 17:51:00,71.0,58.0,30.00,ENE,62,0.0,14.5,64,0.00,,,0.01,VWS V14.01,2013-06-17 21:51:00,
2013-06-17 17:56:00,70.8,57.8,29.99,NNE,13,0.0,5.8,63,0.00,,,0.01,VWS V14.01,2013-06-17 21:56:00,
2013-06-17 18:01:00,70.7,57.8,29.99,SW,228,0.0,10.8,64,0.00,,,0.01,VWS V14.01,2013-06-17 22:01:00,
2013-06-17 18:06:00,70.6,58.0,29.99,SSE,149,0.0,10.8,64,0.00,,,0.01,VWS V14.01,2013-06-17 22:06:00,
2013-06-17 18:11:00,70.6,58.3,29.99,SSW,211,0.0,10.8,65,0.00,,,0.01,VWS V14.01,2013-06-17 22:11:00,
2013-06-17 18:16:00,70.6,58.2,29.99,ESE,115,2.1,10.8,65,0.00,,,0.01,VWS V14.01,2013-06-17 22:16:00,
2013-06-17 18:21:00,70.4,58.3,29.99,SSE,167,0.0,10.8,65,0.00,,,0.01,VWS V14.01,2013-06-17 22:21:00,
2013-06-17 18:26:00,70.5,58.8,29.98,NNE,31,0.0,10.8,66,0.00,,,0.01,VWS V14.01,2013-06-17 22:26:00,
2013-06-17 18:31:00,70.4,58.8,29.99,NE,39,2.4,10.8,67,0.00,,,0.01,VWS V14.01,2013-06-17 22:31:00,
2013-06-17 18:36:00,70.7,59.0,29.99,ENE,75,4.1,13.2,66,0.00,,,0.01,VWS V14.01,2013-06-17 22:36:00,
2013-06-17 18:41:00,70.5,58.2,29.99,NE,38,2.2,15.1,65,0.00,,,0.01,VWS V14.01,2013-06-17 22:41:00,
2013-06-17 18:46:00,70.5,58.3,29.99,North,7,0.9,15.1,65,0.00,,,0.01,VWS V14.01,2013-06-17 22:46:00,
2013-06-17 18:51:00,70.5,58.5,29.99,ENE,63,1.3,15.1,66,0.00,,,0.01,VWS V14.01,2013-06-17 22:51:00,
2013-06-17 18:57:00,70.6,58.7,29.99,NE,51,0.0,11.9,66,0.00,,,0.01,VWS V14.01,2013-06-17 22:57:00,
2013-06-17 19:02:00,70.4,59.3,29.99,NW,321,0.0,11.9,68,0.00,,,0.01,VWS V14.01,2013-06-17 23:02:00,
2013-06-17 19:07:00,70.4,59.1,29.98,NW,321,0.0,11.9,67,0.00,,,0.01,VWS V14.01,2013-06-17 23:07:00,
2013-06-17 19:12:00,70.3,57.9,29.99,North,352,0.0,11.9,65,0.00,,,0.01,VWS V14.01,2013-06-17 23:12:00,
2013-06-17 19:17:00,70.4,58.1,30.00,North,352,0.0,11.9,65,0.00,,,0.01,VWS V14.01,2013-06-17 23:17:00,
2013-06-17 19:22:00,70.4,58.4,30.00,North,11,0.0,11.9,66,0.00,,,0.01,VWS V14.01,2013-06-17 23:22:00,
2013-06-17 19:27:00,70.6,59.0,30.00,North,11,0.0,11.9,67,0.00,,,0.01,VWS V14.01,2013-06-17 23:27:00,
2013-06-17 19:32:00,70.5,59.0,29.99,North,11,0.0,11.9,67,0.00,,,0.01,VWS V14.01,2013-06-17 23:32:00,
2013-06-17 19:37:00,70.6,59.5,30.00,North,11,0.0,11.9,68,0.00,,,0.01,VWS V14.01,2013-06-17 23:37:00,
2013-06-17 19:42:00,70.7,59.6,30.00,North,11,0.0,11.9,68,0.00,,,0.01,VWS V14.01,2013-06-17 23:42:00,
2013-06-17 19:47:00,70.7,60.0,30.00,North,11,0.0,11.9,69,0.00,,,0.01,VWS V14.01,2013-06-17 23:47:00,
2013-06-17 19:52:00,70.6,60.3,30.00,North,11,0.0,11.9,70,0.00,,,0.01,VWS V14.01,2013-06-17 23:52:00,
2013-06-17 19:57:00,70.5,60.0,30.00,North,11,0.0,0.0,69,0.00,,,0.01,VWS V14.01,2013-06-17 23:57:00,
2013-06-17 20:02:00,70.2,60.3,30.00,North,11,0.0,0.0,71,0.00,,,0.01,VWS V14.01,2013-06-18 00:02:00,
2013-06-17 20:07:00,70.0,60.5,30.00,North,11,0.0,0.0,72,0.00,,,0.01,VWS V14.01,2013-06-18 00:07:00,
2013-06-17 20:12:00,69.6,60.2,30.00,North,11,0.0,0.0,72,0.00,,,0.01,VWS V14.01,2013-06-18 00:12:00,
2013-06-17 20:17:00,69.4,60.1,30.00,North,11,0.0,0.0,72,0.00,,,0.01,VWS V14.01,2013-06-18 00:17:00,
2013-06-17 20:22:00,69.0,59.8,30.00,North,11,0.0,0.0,73,0.00,,,0.01,VWS V14.01,2013-06-18 00:22:00,
2013-06-17 20:27:00,68.6,59.9,30.00,North,11,0.0,0.0,74,0.00,,,0.01,VWS V14.01,2013-06-18 00:27:00,
2013-06-17 20:32:00,68.3,59.5,30.01,North,11,0.0,0.0,73,0.00,,,0.01,VWS V14.01,2013-06-18 00:32:00,
2013-06-17 20:37:00,68.1,59.5,30.01,North,11,0.0,0.0,74,0.00,,,0.01,VWS V14.01,2013-06-18 00:37:00,
2013-06-17 20:42:00,67.8,59.7,30.00,North,11,0.0,0.0,75,0.00,,,0.01,VWS V14.01,2013-06-18 00:42:00,
2013-06-17 20:47:00,67.4,59.4,30.00,North,11,0.0,0.0,76,0.00,,,0.01,VWS V14.01,2013-06-18 00:47:00,
2013-06-17 20:53:00,67.2,58.9,30.00,North,11,0.0,0.0,75,0.00,,,0.01,VWS V14.01,2013-06-18 00:53:00,
2013-06-17 20:58:00,66.9,58.8,30.00,North,11,0.0,0.0,75,0.00,,,0.01,VWS V14.01,2013-06-18 00:58:00,
2013-06-17 21:03:00,66.8,59.0,30.00,North,11,0.0,0.0,76,0.00,,,0.01,VWS V14.01,2013-06-18 01:03:00,
2013-06-17 21:08:00,66.6,58.4,30.01,North,11,0.0,0.0,75,0.00,,,0.01,VWS V14.01,2013-06-18 01:08:00,
2013-06-17 21:13:00,66.5,58.5,30.01,North,11,0.0,0.0,76,0.00,,,0.01,VWS V14.01,2013-06-18 01:13:00,
2013-06-17 21:18:00,66.4,58.7,30.01,North,11,0.0,0.0,76,0.00,,,0.01,VWS V14.01,2013-06-18 01:18:00,
2013-06-17 21:23:00,66.3,58.4,30.01,North,11,0.0,0.0,76,0.00,,,0.01,VWS V14.01,2013-06-18 01:23:00,
2013-06-17 21:28:00,66.2,58.1,30.01,North,11,0.0,0.0,75,0.00,,,0.01,VWS V14.01,2013-06-18 01:28:00,
2013-06-17 21:33:00,66.4,58.4,30.01,North,11,0.0,0.0,75,0.00,,,0.01,VWS V14.01,2013-06-18 01:33:00,
2013-06-17 21:38:00,66.3,58.4,30.02,North,11,0.0,0.0,76,0.00,,,0.01,VWS V14.01,2013-06-18 01:38:00,
2013-06-17 21:43:00,66.1,58.2,30.02,North,11,0.0,0.0,76,0.00,,,0.01,VWS V14.01,2013-06-18 01:43:00,
2013-06-17 21:48:00,66.0,58.1,30.01,North,11,0.0,0.0,76,0.00,,,0.01,VWS V14.01,2013-06-18 01:48:00,
2013-06-17 21:53:00,66.0,58.1,30.02,North,11,0.0,0.0,76,0.00,,,0.01,VWS V14.01,2013-06-18 01:53:00,
2013-06-17 21:58:00,65.7,58.0,30.02,North,11,0.0,0.0,76,0.00,,,0.01,VWS V14.01,2013-06-18 01:58:00,
2013-06-17 22:03:00,65.8,58.0,30.01,North,11,0.0,0.0,76,0.00,,,0.01,VWS V14.01,2013-06-18 02:03:00,
2013-06-17 22:08:00,65.3,57.9,30.01,North,11,0.0,0.0,77,0.00,,,0.01,VWS V14.01,2013-06-18 02:08:00,
2013-06-17 22:13:00,65.2,57.9,30.01,North,11,0.0,0.0,77,0.00,,,0.01,VWS V14.01,2013-06-18 02:13:00,
2013-06-17 22:18:00,65.1,57.9,30.01,North,11,0.0,0.0,78,0.00,,,0.01,VWS V14.01,2013-06-18 02:18:00,
2013-06-17 22:23:00,65.0,57.8,30.01,North,11,0.0,0.0,78,0.00,,,0.01,VWS V14.01,2013-06-18 02:23:00,
2013-06-17 22:28:00,64.8,57.7,30.01,North,11,0.0,0.0,78,0.00,,,0.01,VWS V14.01,2013-06-18 02:28:00,
2013-06-17 22:33:00,64.9,57.7,30.01,North,11,0.0,0.0,77,0.00,,,0.01,VWS V14.01,2013-06-18 02:33:00,
2013-06-17 22:38:00,64.8,57.4,30.00,North,11,0.0,0.0,77,0.00,,,0.01,VWS V14.01,2013-06-18 02:38:00,
2013-06-17 22:44:00,64.6,57.3,30.00,North,11,0.0,0.0,77,0.00,,,0.01,VWS V14.01,2013-06-18 02:44:00,
2013-06-17 22:49:00,64.7,57.5,30.00,North,11,0.0,0.0,78,0.00,,,0.01,VWS V14.01,2013-06-18 02:49:00,
2013-06-17 22:54:00,64.6,57.4,30.00,North,11,0.0,0.0,77,0.00,,,0.01,VWS V14.01,2013-06-18 02:54:00,
2013-06-17 22:59:00,64.6,57.5,30.00,North,11,0.0,0.0,78,0.00,,,0.01,VWS V14.01,2013-06-18 02:59:00,
2013-06-17 23:04:00,64.5,57.6,30.00,North,11,0.0,0.0,78,0.00,,,0.01,VWS V14.01,2013-06-18 03:04:00,
2013-06-17 23:09:00,64.4,57.7,30.00,North,11,0.0,0.0,79,0.00,,,0.01,VWS V14.01,2013-06-18 03:09:00,
2013-06-17 23:14:00,64.3,57.8,30.00,North,11,0.0,0.0,79,0.00,,,0.01,VWS V14.01,2013-06-18 03:14:00,
2013-06-17 23:19:00,64.2,57.8,30.00,North,11,0.0,0.0,80,0.00,,,0.01,VWS V14.01,2013-06-18 03:19:00,
2013-06-17 23:24:00,64.3,57.9,30.00,North,11,0.0,0.0,80,0.00,,,0.01,VWS V14.01,2013-06-18 03:24:00,
2013-06-17 23:29:00,64.3,58.0,30.00,North,11,0.0,0.0,80,0.00,,,0.01,VWS V14.01,2013-06-18 03:29:00,
2013-06-17 23:34:00,64.3,58.2,30.00,North,11,0.0,0.0,80,0.00,,,0.01,VWS V14.01,2013-06-18 03:34:00,
2013-06-17 23:39:00,64.2,58.2,30.00,North,11,0.0,0.0,81,0.00,,,0.01,VWS V14.01,2013-06-18 03:39:00,
2013-06-17 23:44:00,64.2,58.2,30.00,North,11,0.0,0.0,81,0.00,,,0.01,VWS V14.01,2013-06-18 03:44:00,
2013-06-17 23:49:00,64.2,58.1,30.00,North,11,0.0,0.0,81,0.00,,,0.01,VWS V14.01,2013-06-18 03:49:00,
2013-06-17 23:54:00,64.2,58.2,30.00,North,11,0.0,0.0,81,0.00,,,0.01,VWS V14.01,2013-06-18 03:54:00,
2013-06-17 23:59:00,64.2,58.2,30.00,North,11,0.0,0.0,81,0.00,,,0.01,VWS V14.01,2013-06-18 03:59:00,